createdAt,value
2018-12-13T00:02:27.270Z,7.20
2018-12-13T00:04:56.299Z,7.40
2018-12-13T00:07:25.355Z,7.60
2018-12-13T00:09:54.805Z,7.90
2018-12-13T00:12:23.796Z,7.60
2018-12-13T00:14:53.564Z,7.40
2018-12-13T00:17:22.737Z,7.00
2018-12-13T00:19:52.002Z,6.40
2018-12-13T00:22:21.031Z,7.00
2018-12-13T00:24:50.188Z,6.80
2018-12-13T00:27:19.397Z,6.80
2018-12-13T00:29:48.728Z,6.50
2018-12-13T00:32:17.888Z,6.10
2018-12-13T00:34:47.027Z,6.80
2018-12-13T00:37:16.175Z,6.60
2018-12-13T00:39:45.319Z,6.20
2018-12-13T00:42:14.356Z,6.20
2018-12-13T00:44:43.499Z,6.70
2018-12-13T00:47:12.739Z,6.50
2018-12-13T00:49:41.903Z,6.40
2018-12-13T00:52:11.024Z,6.10
2018-12-13T00:54:40.308Z,6.60
2018-12-13T00:57:09.743Z,7.10
2018-12-13T00:59:38.892Z,7.00
2018-12-13T01:02:08.039Z,7.40
2018-12-13T01:04:37.073Z,7.40
2018-12-13T01:07:06.298Z,7.00
2018-12-13T01:09:35.480Z,6.50
2018-12-13T01:12:04.595Z,6.90
2018-12-13T01:14:33.671Z,7.20
2018-12-13T01:17:02.843Z,6.50
2018-12-13T01:19:31.866Z,6.80
2018-12-13T01:22:01.109Z,7.00
2018-12-13T01:24:30.251Z,6.90
2018-12-13T01:26:59.307Z,7.20
2018-12-13T01:29:28.448Z,7.10
2018-12-13T01:31:57.459Z,7.30
2018-12-13T01:34:26.480Z,7.20
2018-12-13T01:36:55.659Z,7.30
2018-12-13T01:39:24.771Z,7.50
2018-12-13T01:41:53.944Z,7.60
2018-12-13T01:44:23.103Z,7.20
2018-12-13T01:46:52.239Z,7.50
2018-12-13T01:49:22.008Z,6.90
2018-12-13T01:51:51.319Z,6.80
2018-12-13T01:54:20.515Z,7.20
2018-12-13T01:56:49.670Z,7.50
2018-12-13T01:59:18.800Z,7.80
2018-12-13T02:01:47.795Z,7.70
2018-12-13T02:04:16.952Z,7.90
2018-12-13T02:06:46.003Z,7.60
2018-12-13T02:09:15.015Z,7.60
2018-12-13T02:11:44.196Z,7.80
2018-12-13T02:14:13.415Z,7.90
2018-12-13T02:16:42.702Z,7.30
2018-12-13T02:19:11.918Z,7.60
2018-12-13T02:21:40.983Z,7.40
2018-12-13T02:24:10.235Z,7.70
2018-12-13T02:26:39.251Z,7.90
2018-12-13T02:29:08.303Z,7.40
2018-12-13T02:31:37.464Z,7.70
2018-12-13T02:34:06.765Z,7.40
2018-12-13T02:36:36.118Z,7.20
2018-12-13T02:39:06.403Z,7.10
2018-12-13T02:41:35.466Z,7.40
2018-12-13T02:44:04.695Z,7.40
2018-12-13T02:46:33.870Z,7.00
2018-12-13T02:49:08.133Z,6.70
2018-12-13T02:51:38.179Z,6.80
2018-12-13T02:54:07.444Z,6.90
2018-12-13T02:56:36.525Z,6.20
2018-12-13T02:59:05.654Z,6.50
2018-12-13T03:01:35.671Z,5.30
2018-12-13T03:04:04.999Z,4.50
2018-12-13T03:06:34.063Z,4.80
2018-12-13T03:09:03.310Z,5.20
2018-12-13T03:11:32.439Z,6.10
2018-12-13T03:14:01.628Z,6.30
2018-12-13T03:16:30.676Z,5.40
2018-12-13T03:18:59.712Z,5.20
2018-12-13T03:21:28.743Z,5.60
2018-12-13T03:23:57.917Z,6.30
2018-12-13T03:26:27.157Z,6.60
2018-12-13T03:28:56.411Z,6.70
2018-12-13T03:31:25.551Z,7.00
2018-12-13T03:33:54.802Z,6.50
2018-12-13T03:36:23.931Z,5.60
2018-12-13T03:38:52.993Z,5.60
2018-12-13T03:41:22.216Z,5.70
2018-12-13T03:43:51.722Z,5.00
2018-12-13T03:46:21.043Z,5.40
2018-12-13T03:48:51.243Z,5.80
2018-12-13T03:51:20.463Z,5.60
2018-12-13T03:53:49.602Z,5.70
2018-12-13T03:56:18.736Z,5.70
2018-12-13T03:58:47.999Z,5.30
2018-12-13T04:01:17.033Z,5.40
2018-12-13T04:03:46.306Z,5.30
2018-12-13T04:06:15.415Z,5.30
2018-12-13T04:08:44.934Z,4.60
2018-12-13T04:11:14.641Z,5.00
2018-12-13T04:13:43.800Z,4.70
2018-12-13T04:16:12.947Z,4.20
2018-12-13T04:18:41.971Z,4.80
2018-12-13T04:21:11.140Z,5.50
2018-12-13T04:23:40.275Z,5.30
2018-12-13T04:26:09.405Z,5.50
2018-12-13T04:28:38.467Z,5.80
2018-12-13T04:31:07.603Z,5.70
2018-12-13T04:33:36.751Z,5.00
2018-12-13T04:36:05.797Z,4.30
2018-12-13T04:38:34.960Z,4.80
2018-12-13T04:41:04.170Z,4.90
2018-12-13T04:43:33.215Z,4.60
2018-12-13T04:46:02.465Z,4.10
2018-12-13T04:48:31.539Z,4.10
2018-12-13T04:51:00.652Z,3.70
2018-12-13T04:53:29.734Z,4.20
2018-12-13T04:55:58.863Z,4.80
2018-12-13T04:58:28.255Z,4.60
2018-12-13T05:00:57.410Z,5.00
2018-12-13T05:03:26.551Z,5.30
2018-12-13T05:05:55.599Z,5.40
2018-12-13T05:08:24.733Z,4.40
2018-12-13T05:10:56.020Z,4.90
2018-12-13T05:13:25.277Z,4.50
2018-12-13T05:15:54.496Z,4.30
2018-12-13T05:18:23.689Z,5.10
2018-12-13T05:20:52.893Z,4.80
2018-12-13T05:23:22.118Z,4.70
2018-12-13T05:25:51.392Z,5.10
2018-12-13T05:28:20.471Z,4.60
2018-12-13T05:30:49.982Z,5.80
2018-12-13T05:33:19.174Z,6.00
2018-12-13T05:35:48.220Z,5.50
2018-12-13T05:38:17.476Z,5.70
2018-12-13T05:40:46.523Z,5.40
2018-12-13T05:43:15.536Z,6.10
2018-12-13T05:45:44.605Z,6.10
2018-12-13T05:48:13.620Z,6.40
2018-12-13T05:50:42.698Z,6.50
2018-12-13T05:53:11.943Z,6.60
2018-12-13T05:55:40.974Z,6.80
2018-12-13T05:58:10.011Z,7.00
2018-12-13T06:00:39.331Z,7.30
2018-12-13T06:03:08.513Z,7.10
2018-12-13T06:05:37.730Z,7.00
2018-12-13T06:08:07.383Z,7.10
2018-12-13T06:10:36.513Z,6.90
2018-12-13T06:13:05.880Z,7.00
2018-12-13T06:15:35.128Z,6.70
2018-12-13T06:18:06.977Z,6.90
2018-12-13T06:20:35.369Z,6.50
2018-12-13T06:23:04.505Z,6.60
2018-12-13T06:25:33.642Z,6.90
2018-12-13T06:28:02.697Z,7.10
2018-12-13T06:30:31.947Z,7.10
2018-12-13T06:33:01.098Z,7.10
2018-12-13T06:35:30.339Z,7.10
2018-12-13T06:38:01.385Z,7.00
2018-12-13T06:40:30.551Z,7.30
2018-12-13T06:42:59.728Z,7.50
2018-12-13T06:45:28.853Z,7.50
2018-12-13T06:47:58.019Z,7.00
2018-12-13T06:50:27.374Z,7.00
2018-12-13T06:52:56.577Z,7.20
2018-12-13T06:55:25.764Z,7.10
2018-12-13T06:57:55.220Z,7.20
2018-12-13T07:00:24.364Z,7.30
2018-12-13T07:02:53.516Z,7.40
2018-12-13T07:05:22.734Z,7.50
2018-12-13T07:07:51.892Z,7.40
2018-12-13T07:10:20.984Z,7.00
2018-12-13T07:12:49.990Z,6.90
2018-12-13T07:15:19.009Z,6.30
2018-12-13T07:17:48.181Z,6.60
2018-12-13T07:20:17.338Z,6.80
2018-12-13T07:22:46.464Z,6.10
2018-12-13T07:25:15.605Z,6.40
2018-12-13T07:27:44.768Z,6.40
2018-12-13T07:30:14.020Z,6.30
2018-12-13T07:32:43.211Z,6.10
2018-12-13T07:35:12.411Z,5.70
2018-12-13T07:37:41.560Z,5.50
2018-12-13T07:40:10.616Z,5.00
2018-12-13T07:42:39.769Z,4.50
2018-12-13T07:45:09.048Z,5.10
2018-12-13T07:47:38.492Z,5.10
2018-12-13T07:50:08.283Z,4.90
2018-12-13T07:52:37.503Z,4.50
2018-12-13T07:55:07.219Z,5.20
2018-12-13T07:57:36.901Z,5.40
2018-12-13T08:00:08.438Z,5.60
2018-12-13T08:02:37.837Z,4.60
2018-12-13T08:05:08.031Z,4.10
2018-12-13T08:07:37.089Z,4.50
2018-12-13T08:10:06.531Z,3.80
2018-12-13T08:12:35.668Z,4.40
2018-12-13T08:15:05.851Z,4.50
2018-12-13T08:17:35.107Z,4.30
2018-12-13T08:20:04.788Z,4.80
2018-12-13T08:22:33.995Z,4.10
2018-12-13T08:25:03.271Z,4.30
2018-12-13T08:27:32.395Z,5.00
2018-12-13T08:30:01.604Z,5.20
2018-12-13T08:32:30.680Z,5.70
2018-12-13T08:34:59.964Z,4.70
2018-12-13T08:37:29.282Z,4.20
2018-12-13T08:39:58.874Z,4.80
2018-12-13T08:42:28.008Z,4.40
2018-12-13T08:44:57.048Z,4.80
2018-12-13T08:47:26.273Z,5.80
2018-12-13T08:49:56.729Z,4.70
2018-12-13T08:52:26.011Z,4.60
2018-12-13T08:54:55.161Z,4.40
2018-12-13T08:57:24.307Z,4.00
2018-12-13T08:59:53.472Z,4.30
2018-12-13T09:02:22.709Z,4.30
2018-12-13T09:04:53.013Z,4.50
2018-12-13T09:07:22.235Z,4.40
2018-12-13T09:09:51.295Z,4.10
2018-12-13T09:12:20.519Z,4.60
2018-12-13T09:14:49.579Z,4.60
2018-12-13T09:17:18.627Z,4.40
2018-12-13T09:19:47.675Z,4.00
2018-12-13T09:22:16.851Z,4.40
2018-12-13T09:24:46.273Z,4.40
2018-12-13T09:27:16.717Z,4.60
2018-12-13T09:29:46.008Z,4.50
2018-12-13T09:32:15.304Z,4.50
2018-12-13T09:34:44.608Z,4.30
2018-12-13T09:37:13.784Z,5.10
2018-12-13T09:39:42.822Z,5.20
2018-12-13T09:42:12.286Z,5.70
2018-12-13T09:44:41.323Z,6.20
2018-12-13T09:47:10.638Z,5.80
2018-12-13T09:49:39.965Z,6.60
2018-12-13T09:52:09.575Z,6.90
2018-12-13T09:54:38.839Z,6.30
2018-12-13T09:57:08.219Z,6.00
2018-12-13T09:59:37.707Z,6.10
2018-12-13T10:02:07.029Z,5.70
2018-12-13T10:04:36.094Z,5.80
2018-12-13T10:07:05.521Z,5.80
2018-12-13T10:09:34.771Z,5.80
2018-12-13T10:12:03.919Z,5.70
2018-12-13T10:14:32.956Z,5.80
2018-12-13T10:17:01.983Z,5.60
2018-12-13T10:19:31.346Z,5.40
2018-12-13T10:22:00.803Z,5.90
2018-12-13T10:24:30.391Z,5.10
2018-12-13T10:27:00.129Z,5.30
2018-12-13T10:29:29.708Z,5.10
2018-12-13T10:31:59.236Z,4.60
2018-12-13T10:34:28.535Z,4.70
2018-12-13T10:36:57.741Z,4.60
2018-12-13T10:39:27.092Z,4.60
2018-12-13T10:41:56.328Z,4.70
2018-12-13T10:44:30.848Z,5.10
2018-12-13T10:47:00.438Z,5.50
2018-12-13T10:49:29.574Z,5.10
2018-12-13T10:51:58.719Z,4.40
2018-12-13T10:54:27.787Z,4.00
2018-12-13T10:56:56.925Z,4.20
2018-12-13T10:59:26.076Z,4.00
2018-12-13T11:02:00.340Z,4.10
2018-12-13T11:04:29.704Z,4.40
2018-12-13T11:06:58.901Z,4.80
2018-12-13T11:09:28.140Z,4.50
2018-12-13T11:11:57.285Z,4.30
2018-12-13T11:14:26.281Z,4.80
2018-12-13T11:16:55.251Z,4.90
2018-12-13T11:19:24.538Z,4.50
2018-12-13T11:21:53.604Z,4.40
2018-12-13T11:24:22.822Z,4.40
2018-12-13T11:26:51.999Z,4.80
2018-12-13T11:29:32.500Z,4.70
2018-12-13T11:32:02.057Z,5.00
2018-12-13T11:34:31.012Z,4.60
2018-12-13T11:37:00.062Z,4.70
2018-12-13T11:39:29.116Z,4.40
2018-12-13T11:41:58.266Z,4.30
2018-12-13T11:44:27.504Z,4.30
2018-12-13T11:46:56.631Z,4.20
2018-12-13T11:49:25.822Z,4.60
2018-12-13T11:51:54.927Z,5.20
2018-12-13T11:54:46.135Z,4.60
2018-12-13T11:57:15.331Z,4.70
2018-12-13T11:59:44.503Z,4.70
2018-12-13T12:02:13.620Z,4.40
2018-12-13T12:04:42.843Z,4.60
2018-12-13T12:07:11.715Z,4.70
2018-12-13T12:09:40.640Z,5.30
2018-12-13T12:12:09.922Z,4.60
2018-12-13T12:14:38.967Z,4.50
2018-12-13T12:17:08.115Z,4.20
2018-12-13T12:19:37.161Z,4.10
2018-12-13T12:22:06.358Z,4.30
2018-12-13T12:24:35.368Z,4.30
2018-12-13T12:27:04.432Z,4.70
2018-12-13T12:29:33.837Z,4.30
2018-12-13T12:32:03.060Z,4.30
2018-12-13T12:34:32.500Z,4.30
2018-12-13T12:37:01.956Z,3.90
2018-12-13T12:39:31.112Z,3.90
2018-12-13T12:42:00.231Z,4.10
2018-12-13T12:44:35.145Z,4.50
2018-12-13T12:47:04.260Z,4.60
2018-12-13T12:49:33.361Z,4.30
2018-12-13T12:52:02.592Z,3.90
2018-12-13T12:54:33.332Z,4.20
2018-12-13T12:57:02.848Z,4.30
2018-12-13T12:59:32.031Z,4.30
2018-12-13T13:02:01.171Z,4.70
2018-12-13T13:04:30.304Z,4.20
2018-12-13T13:06:59.367Z,4.20
2018-12-13T13:09:28.503Z,4.60
2018-12-13T13:11:58.092Z,5.30
2018-12-13T13:14:27.432Z,5.20
2018-12-13T13:16:57.695Z,4.60
2018-12-13T13:19:26.876Z,4.40
2018-12-13T13:21:56.170Z,4.60
2018-12-13T13:24:25.460Z,4.40
2018-12-13T13:26:54.624Z,4.50
2018-12-13T13:29:23.728Z,4.30
2018-12-13T13:31:52.983Z,4.30
2018-12-13T13:34:22.116Z,4.60
2018-12-13T13:36:51.279Z,4.30
2018-12-13T13:39:20.523Z,4.30
2018-12-13T13:41:49.680Z,4.60
2018-12-13T13:44:19.367Z,4.70
2018-12-13T13:46:48.530Z,4.90
2018-12-13T13:49:17.691Z,4.60
2018-12-13T13:51:47.581Z,4.30
2018-12-13T13:54:17.127Z,4.10
2018-12-13T13:56:46.672Z,4.70
2018-12-13T13:59:16.137Z,4.70
2018-12-13T14:01:45.676Z,4.70
2018-12-13T14:04:15.234Z,4.60
2018-12-13T14:06:44.507Z,4.40
2018-12-13T14:09:14.088Z,4.10
2018-12-13T14:11:43.471Z,4.30
2018-12-13T14:14:12.626Z,4.10
2018-12-13T14:16:41.867Z,4.30
2018-12-13T14:19:11.255Z,4.00
2018-12-13T14:21:40.549Z,4.00
2018-12-13T14:24:09.867Z,4.10
2018-12-13T14:26:39.068Z,4.30
2018-12-13T14:29:08.319Z,4.40
2018-12-13T14:31:37.437Z,4.20
2018-12-13T14:34:06.662Z,4.20
2018-12-13T14:36:35.721Z,4.40
2018-12-13T14:39:07.162Z,4.70
2018-12-13T14:41:36.493Z,4.70
2018-12-13T14:44:05.551Z,4.40
2018-12-13T14:46:34.574Z,4.40
2018-12-13T14:49:03.946Z,4.30
2018-12-13T14:51:33.395Z,4.60
2018-12-13T14:54:03.620Z,4.40
2018-12-13T14:56:32.884Z,4.20
2018-12-13T14:59:02.066Z,4.00
2018-12-13T15:01:31.202Z,3.80
2018-12-13T15:04:00.716Z,3.60
2018-12-13T15:06:30.286Z,3.60
2018-12-13T15:08:59.451Z,4.40
2018-12-13T15:11:28.800Z,4.50
2018-12-13T15:13:58.229Z,3.90
2018-12-13T15:16:27.312Z,4.00
2018-12-13T15:18:56.448Z,4.70
2018-12-13T15:21:25.757Z,4.60
2018-12-13T15:23:55.108Z,4.50
2018-12-13T15:26:24.795Z,3.90
2018-12-13T15:28:53.892Z,4.10
2018-12-13T15:31:23.112Z,4.10
2018-12-13T15:33:52.181Z,4.40
2018-12-13T15:36:21.338Z,3.90
2018-12-13T15:38:50.607Z,4.00
2018-12-13T15:41:19.864Z,3.30
2018-12-13T15:43:49.088Z,3.60
2018-12-13T15:46:18.139Z,3.70
2018-12-13T15:48:47.161Z,4.00
2018-12-13T15:51:16.221Z,4.20
2018-12-13T15:53:46.639Z,4.70
2018-12-13T15:56:15.950Z,4.50
2018-12-13T15:58:45.076Z,5.00
2018-12-13T16:01:14.136Z,4.70
2018-12-13T16:03:43.279Z,4.50
2018-12-13T16:06:12.324Z,3.90
2018-12-13T16:08:41.368Z,4.40
2018-12-13T16:11:10.417Z,4.80
2018-12-13T16:13:39.427Z,4.90
2018-12-13T16:16:08.620Z,5.20
2018-12-13T16:18:37.741Z,5.50
2018-12-13T16:21:06.853Z,5.90
2018-12-13T16:23:36.046Z,5.40
2018-12-13T16:26:05.108Z,5.30
2018-12-13T16:28:34.852Z,5.30
2018-12-13T16:31:04.003Z,5.30
2018-12-13T16:33:33.448Z,5.80
2018-12-13T16:36:02.544Z,5.50
2018-12-13T16:38:31.757Z,5.60
2018-12-13T16:41:00.896Z,4.90
2018-12-13T16:43:29.868Z,5.20
2018-12-13T16:45:59.228Z,5.50
2018-12-13T16:48:28.427Z,5.20
2018-12-13T16:50:57.724Z,5.10
2018-12-13T16:53:26.995Z,4.90
2018-12-13T16:55:56.111Z,4.00
2018-12-13T16:58:25.272Z,4.10
2018-12-13T17:00:54.525Z,4.20
2018-12-13T17:03:37.492Z,4.60
2018-12-13T17:06:06.829Z,4.40
2018-12-13T17:08:36.100Z,5.00
2018-12-13T17:11:05.623Z,5.30
2018-12-13T17:13:34.894Z,5.70
2018-12-13T17:16:04.003Z,5.60
2018-12-13T17:18:33.178Z,5.40
2018-12-13T17:21:02.219Z,5.40
2018-12-13T17:23:31.280Z,5.50
2018-12-13T17:26:00.298Z,5.20
2018-12-13T17:28:29.349Z,5.20
2018-12-13T17:30:58.383Z,5.60
2018-12-13T17:33:27.748Z,5.90
2018-12-13T17:35:56.903Z,6.20
2018-12-13T17:38:26.415Z,6.50
2018-12-13T17:40:55.476Z,6.60
2018-12-13T17:43:24.547Z,6.40
2018-12-13T17:45:53.668Z,6.60
2018-12-13T17:48:23.430Z,6.50
2018-12-13T17:50:52.575Z,6.80
2018-12-13T17:53:21.623Z,7.00
2018-12-13T17:55:50.864Z,7.20
2018-12-13T17:58:19.943Z,7.30
2018-12-13T18:00:49.166Z,7.30
2018-12-13T18:03:18.212Z,7.40
2018-12-13T18:05:47.356Z,7.40
2018-12-13T18:08:16.878Z,7.40
2018-12-13T18:10:46.546Z,7.40
2018-12-13T18:13:16.060Z,7.40
2018-12-13T18:15:45.599Z,7.40
2018-12-13T18:18:15.192Z,7.40
2018-12-13T18:20:44.288Z,7.40
2018-12-13T18:23:13.587Z,7.40
2018-12-13T18:25:42.623Z,7.30
2018-12-13T18:28:11.980Z,7.20
2018-12-13T18:30:41.236Z,7.10
2018-12-13T18:33:10.383Z,7.10
2018-12-13T18:35:39.430Z,7.20
2018-12-13T18:38:08.446Z,7.10
2018-12-13T18:40:38.282Z,7.20
2018-12-13T18:43:07.444Z,7.20
2018-12-13T18:45:37.403Z,7.40
2018-12-13T18:48:07.441Z,7.40
2018-12-13T18:50:36.602Z,7.50
2018-12-13T18:53:05.677Z,7.60
2018-12-13T18:55:34.887Z,7.60
2018-12-13T18:58:04.262Z,7.50
2018-12-13T19:00:33.332Z,7.60
2018-12-13T19:03:02.350Z,7.40
2018-12-13T19:05:31.625Z,7.40
2018-12-13T19:08:01.085Z,7.50
2018-12-13T19:10:30.228Z,7.40
2018-12-13T19:12:59.276Z,7.30
2018-12-13T19:15:28.550Z,7.30
2018-12-13T19:17:57.774Z,7.40
2018-12-13T19:20:27.276Z,7.60
2018-12-13T19:22:57.084Z,7.90
2018-12-13T19:25:27.744Z,8.00
2018-12-13T19:27:57.813Z,8.10
2018-12-13T19:30:27.449Z,8.10
2018-12-13T19:32:57.743Z,8.20
2018-12-13T19:35:27.157Z,8.20
2018-12-13T19:37:56.956Z,8.20
2018-12-13T19:40:26.389Z,7.70
2018-12-13T19:42:55.534Z,7.50
2018-12-13T19:45:24.652Z,7.80
2018-12-13T19:47:53.820Z,7.40
2018-12-13T19:50:23.064Z,7.30
2018-12-13T19:52:52.112Z,7.50
2018-12-13T19:55:21.834Z,7.10
2018-12-13T19:57:50.903Z,7.10
2018-12-13T20:00:20.037Z,6.80
2018-12-13T20:02:49.068Z,6.80
2018-12-13T20:05:18.131Z,6.90
2018-12-13T20:07:47.426Z,6.90
2018-12-13T20:10:16.526Z,7.20
2018-12-13T20:12:45.592Z,7.20
2018-12-13T20:15:14.834Z,7.40
2018-12-13T20:17:44.143Z,6.50
2018-12-13T20:20:13.263Z,6.80
2018-12-13T20:22:42.384Z,7.10
2018-12-13T20:25:11.401Z,7.40
2018-12-13T20:27:40.467Z,7.40
2018-12-13T20:30:10.416Z,7.30
2018-12-13T20:32:39.476Z,7.20
2018-12-13T20:35:08.755Z,7.50
2018-12-13T20:37:38.522Z,7.40
2018-12-13T20:40:08.322Z,7.30
2018-12-13T20:42:37.440Z,7.50
2018-12-13T20:45:08.080Z,7.60
2018-12-13T20:47:37.675Z,7.70
2018-12-13T20:50:07.700Z,7.70
2018-12-13T20:52:37.384Z,7.80
2018-12-13T20:55:07.444Z,7.90
2018-12-13T20:57:36.475Z,7.90
2018-12-13T21:00:08.464Z,7.90
2018-12-13T21:02:37.699Z,7.90
2018-12-13T21:05:07.392Z,7.90
2018-12-13T21:07:36.705Z,7.90
2018-12-13T21:10:09.292Z,8.00
2018-12-13T21:12:38.612Z,7.90
2018-12-13T21:15:09.232Z,8.00
2018-12-13T21:17:38.521Z,7.90
2018-12-13T21:20:07.956Z,7.90
2018-12-13T21:22:37.105Z,7.90
2018-12-13T21:25:06.459Z,7.60
2018-12-13T21:27:35.599Z,7.60
2018-12-13T21:30:05.708Z,7.60
2018-12-13T21:32:35.012Z,7.60
2018-12-13T21:35:04.428Z,7.70
2018-12-13T21:37:33.617Z,7.60
2018-12-13T21:40:02.979Z,7.30
2018-12-13T21:42:32.107Z,7.60
2018-12-13T21:45:01.158Z,7.90
2018-12-13T21:47:30.303Z,7.90
2018-12-13T21:49:59.460Z,7.80
2018-12-13T21:52:28.576Z,7.90
2018-12-13T21:54:57.735Z,7.60
2018-12-13T21:57:27.708Z,7.70
2018-12-13T21:59:56.810Z,7.70
2018-12-13T22:02:25.885Z,7.60
2018-12-13T22:04:54.935Z,7.60
2018-12-13T22:07:23.985Z,7.20
2018-12-13T22:09:53.775Z,6.90
2018-12-13T22:12:23.068Z,7.00
2018-12-13T22:14:52.359Z,7.20
2018-12-13T22:17:21.479Z,7.60
2018-12-13T22:19:50.587Z,7.70
2018-12-13T22:22:20.391Z,7.70
2018-12-13T22:24:49.653Z,7.90
2018-12-13T22:27:18.688Z,8.10
2018-12-13T22:29:47.763Z,7.70
2018-12-13T22:32:16.944Z,7.90
2018-12-13T22:34:45.987Z,7.90
2018-12-13T22:37:15.184Z,7.90
2018-12-13T22:39:44.260Z,7.80
2018-12-13T22:42:13.563Z,7.80
2018-12-13T22:44:43.120Z,7.70
2018-12-13T22:47:12.307Z,7.90
2018-12-13T22:49:41.576Z,7.90
2018-12-13T22:52:10.737Z,8.00
2018-12-13T22:54:39.944Z,8.00
2018-12-13T22:57:09.104Z,7.90
2018-12-13T22:59:38.160Z,8.00
2018-12-13T23:02:07.385Z,7.80
2018-12-13T23:04:36.631Z,8.00
2018-12-13T23:07:05.695Z,8.00
2018-12-13T23:09:34.829Z,8.00
2018-12-13T23:12:04.074Z,8.10
2018-12-13T23:14:33.111Z,8.10
2018-12-13T23:17:02.321Z,7.90
2018-12-13T23:19:31.379Z,7.90
2018-12-13T23:22:00.464Z,8.00
2018-12-13T23:24:30.075Z,7.90
2018-12-13T23:26:59.269Z,7.90
2018-12-13T23:29:28.401Z,7.80
2018-12-13T23:31:57.448Z,7.90
2018-12-13T23:34:26.485Z,7.80
2018-12-13T23:36:55.640Z,7.00
2018-12-13T23:39:24.770Z,7.30
2018-12-13T23:41:53.841Z,7.50
2018-12-13T23:44:22.843Z,7.80
2018-12-13T23:46:51.925Z,7.60
2018-12-13T23:49:21.169Z,7.70
2018-12-13T23:51:50.301Z,7.80
2018-12-13T23:54:19.992Z,7.80
2018-12-13T23:56:49.045Z,7.50
2018-12-13T23:59:18.274Z,7.70
